Allagash, Maine
Current Conditions -  °F | °C
As of 10:53 AM on Sunday 21 Dec 2014 (Local Time) from KFVE Reporting Station
Overcast Overcast  
Wind Chill: 10°   Ceiling: 1000
Heat Index: 18°   Visibility: 10mi
Dew Point: 15°   Wind: 6mph
Humidity: 88%   Direction: 200°SSW
Pressure: 30.32"   Gusts: NA
Location:  47.1951°N, 69.2728°W
Report Text: KFVE 211553Z AUTO 20005KT 10SM OVC010 M08/M09 A3032 RMK AO2 SLP285 T10781094
Loading
Personal Weather Stations






























Interactive Weather Map New forecast layout! Learn more

10-Day Weather Forecast

Advertisements
Track Severe Weather on mobile